sensor_id;sensor_type;location;lat;lon;timestamp;pressure;altitude;pressure_sealevel;temperature;humidity
54808;BME280;40708;50.364;7.550;2023-04-06T00:02:21;100783.47;;;1.61;100.00
54808;BME280;40708;50.364;7.550;2023-04-06T00:04:46;100787.44;;;1.52;100.00
54808;BME280;40708;50.364;7.550;2023-04-06T00:07:11;100784.47;;;1.44;100.00
54808;BME280;40708;50.364;7.550;2023-04-06T00:09:36;100778.44;;;1.45;100.00
54808;BME280;40708;50.364;7.550;2023-04-06T00:12:02;100778.16;;;1.39;100.00
54808;BME280;40708;50.364;7.550;2023-04-06T00:14:27;100780.91;;;1.42;100.00
54808;BME280;40708;50.364;7.550;2023-04-06T00:16:52;100776.09;;;1.94;100.00
54808;BME280;40708;50.364;7.550;2023-04-06T00:19:18;100770.50;;;2.29;100.00
54808;BME280;40708;50.364;7.550;2023-04-06T00:21:43;100771.03;;;2.43;100.00
54808;BME280;40708;50.364;7.550;2023-04-06T00:24:08;100758.88;;;2.45;100.00
54808;BME280;40708;50.364;7.550;2023-04-06T00:26:33;100756.91;;;2.39;100.00
54808;BME280;40708;50.364;7.550;2023-04-06T00:28:59;100751.16;;;2.48;100.00
54808;BME280;40708;50.364;7.550;2023-04-06T00:31:24;100749.91;;;2.38;100.00
54808;BME280;40708;50.364;7.550;2023-04-06T00:33:49;100747.75;;;2.28;100.00
54808;BME280;40708;50.364;7.550;2023-04-06T00:36:14;100752.56;;;2.16;100.00
54808;BME280;40708;50.364;7.550;2023-04-06T00:38:40;100753.03;;;2.06;100.00
54808;BME280;40708;50.364;7.550;2023-04-06T00:41:05;100749.75;;;1.90;100.00
54808;BME280;40708;50.364;7.550;2023-04-06T00:43:31;100751.69;;;1.73;100.00
54808;BME280;40708;50.364;7.550;2023-04-06T00:45:57;100751.13;;;1.59;100.00
54808;BME280;40708;50.364;7.550;2023-04-06T00:48:22;100749.78;;;1.48;100.00
54808;BME280;40708;50.364;7.550;2023-04-06T00:50:48;100757.13;;;1.36;100.00
54808;BME280;40708;50.364;7.550;2023-04-06T00:53:13;100761.09;;;1.27;100.00
54808;BME280;40708;50.364;7.550;2023-04-06T00:55:38;100754.00;;;1.24;100.00
54808;BME280;40708;50.364;7.550;2023-04-06T00:58:04;100759.69;;;1.14;100.00
54808;BME280;40708;50.364;7.550;2023-04-06T01:00:29;100762.69;;;1.04;100.00
54808;BME280;40708;50.364;7.550;2023-04-06T01:02:55;100753.97;;;1.03;100.00
54808;BME280;40708;50.364;7.550;2023-04-06T01:05:20;100762.56;;;1.01;100.00
54808;BME280;40708;50.364;7.550;2023-04-06T01:07:46;100754.09;;;1.06;100.00
54808;BME280;40708;50.364;7.550;2023-04-06T01:10:22;100756.34;;;0.97;100.00
54808;BME280;40708;50.364;7.550;2023-04-06T01:12:47;100753.13;;;0.84;100.00
54808;BME280;40708;50.364;7.550;2023-04-06T01:15:13;100754.75;;;0.82;100.00
54808;BME280;40708;50.364;7.550;2023-04-06T01:17:38;100757.75;;;0.70;100.00
54808;BME280;40708;50.364;7.550;2023-04-06T01:20:04;100757.66;;;0.69;100.00
54808;BME280;40708;50.364;7.550;2023-04-06T01:22:30;100755.66;;;0.63;100.00
54808;BME280;40708;50.364;7.550;2023-04-06T01:24:55;100752.44;;;0.69;100.00
54808;BME280;40708;50.364;7.550;2023-04-06T01:27:21;100753.00;;;0.62;100.00
54808;BME280;40708;50.364;7.550;2023-04-06T01:29:47;100744.13;;;0.58;100.00
54808;BME280;40708;50.364;7.550;2023-04-06T01:32:12;100739.47;;;0.51;100.00
54808;BME280;40708;50.364;7.550;2023-04-06T01:34:37;100748.81;;;0.46;100.00
54808;BME280;40708;50.364;7.550;2023-04-06T01:37:02;100753.19;;;0.47;100.00
54808;BME280;40708;50.364;7.550;2023-04-06T01:39:29;100751.00;;;0.37;100.00
54808;BME280;40708;50.364;7.550;2023-04-06T01:41:54;100743.84;;;0.33;100.00
54808;BME280;40708;50.364;7.550;2023-04-06T01:44:19;100755.59;;;0.23;100.00
54808;BME280;40708;50.364;7.550;2023-04-06T01:46:45;100750.41;;;0.25;100.00
54808;BME280;40708;50.364;7.550;2023-04-06T01:49:11;100760.19;;;0.29;100.00
54808;BME280;40708;50.364;7.550;2023-04-06T01:51:36;100759.16;;;0.25;100.00
54808;BME280;40708;50.364;7.550;2023-04-06T01:54:02;100753.63;;;0.19;100.00
54808;BME280;40708;50.364;7.550;2023-04-06T01:56:27;100756.84;;;0.14;100.00
54808;BME280;40708;50.364;7.550;2023-04-06T01:58:52;100756.50;;;0.06;100.00
54808;BME280;40708;50.364;7.550;2023-04-06T02:01:17;100753.75;;;0.03;100.00
54808;BME280;40708;50.364;7.550;2023-04-06T02:03:43;100761.81;;;0.08;100.00
54808;BME280;40708;50.364;7.550;2023-04-06T02:06:08;100761.72;;;0.06;100.00
54808;BME280;40708;50.364;7.550;2023-04-06T02:08:33;100759.66;;;-0.01;100.00
54808;BME280;40708;50.364;7.550;2023-04-06T02:10:58;100758.47;;;-0.08;100.00
54808;BME280;40708;50.364;7.550;2023-04-06T02:13:24;100759.97;;;-0.13;100.00
54808;BME280;40708;50.364;7.550;2023-04-06T02:15:49;100765.63;;;-0.21;100.00
54808;BME280;40708;50.364;7.550;2023-04-06T02:18:14;100770.09;;;-0.19;100.00
54808;BME280;40708;50.364;7.550;2023-04-06T02:20:40;100769.81;;;-0.25;100.00
54808;BME280;40708;50.364;7.550;2023-04-06T02:23:05;100772.13;;;-0.31;100.00
54808;BME280;40708;50.364;7.550;2023-04-06T02:25:30;100766.59;;;-0.37;100.00
54808;BME280;40708;50.364;7.550;2023-04-06T02:27:56;100762.13;;;-0.39;100.00
54808;BME280;40708;50.364;7.550;2023-04-06T02:30:21;100768.25;;;-0.39;100.00
54808;BME280;40708;50.364;7.550;2023-04-06T02:32:46;100763.63;;;-0.44;100.00
54808;BME280;40708;50.364;7.550;2023-04-06T02:35:11;100770.09;;;-0.36;100.00
54808;BME280;40708;50.364;7.550;2023-04-06T02:37:37;100769.59;;;-0.47;100.00
54808;BME280;40708;50.364;7.550;2023-04-06T02:40:03;100778.22;;;-0.48;100.00
54808;BME280;40708;50.364;7.550;2023-04-06T02:42:28;100771.88;;;-0.53;100.00
54808;BME280;40708;50.364;7.550;2023-04-06T02:44:54;100775.56;;;-0.49;100.00
54808;BME280;40708;50.364;7.550;2023-04-06T02:47:19;100781.78;;;-0.46;100.00
54808;BME280;40708;50.364;7.550;2023-04-06T02:49:45;100780.00;;;-0.47;100.00
54808;BME280;40708;50.364;7.550;2023-04-06T02:52:10;100770.97;;;-0.53;100.00
54808;BME280;40708;50.364;7.550;2023-04-06T02:54:35;100777.25;;;-0.50;100.00
54808;BME280;40708;50.364;7.550;2023-04-06T02:57:00;100770.03;;;-0.55;100.00
54808;BME280;40708;50.364;7.550;2023-04-06T02:59:26;100778.59;;;-0.58;100.00
54808;BME280;40708;50.364;7.550;2023-04-06T03:01:51;100782.59;;;-0.65;100.00
54808;BME280;40708;50.364;7.550;2023-04-06T03:04:16;100773.06;;;-0.64;100.00
54808;BME280;40708;50.364;7.550;2023-04-06T03:06:41;100780.88;;;-0.64;100.00
54808;BME280;40708;50.364;7.550;2023-04-06T03:09:07;100786.09;;;-0.64;100.00
54808;BME280;40708;50.364;7.550;2023-04-06T03:11:32;100786.69;;;-0.70;100.00
54808;BME280;40708;50.364;7.550;2023-04-06T03:13:57;100783.00;;;-0.73;100.00
54808;BME280;40708;50.364;7.550;2023-04-06T03:16:24;100786.38;;;-0.76;100.00
54808;BME280;40708;50.364;7.550;2023-04-06T03:18:49;100792.56;;;-0.74;100.00
54808;BME280;40708;50.364;7.550;2023-04-06T03:21:14;100784.06;;;-0.70;100.00
54808;BME280;40708;50.364;7.550;2023-04-06T03:23:44;100789.88;;;-0.75;100.00
54808;BME280;40708;50.364;7.550;2023-04-06T03:26:10;100780.78;;;-0.83;100.00
54808;BME280;40708;50.364;7.550;2023-04-06T03:28:35;100784.28;;;-0.83;100.00
54808;BME280;40708;50.364;7.550;2023-04-06T03:31:01;100785.97;;;-0.83;100.00
54808;BME280;40708;50.364;7.550;2023-04-06T03:33:26;100795.59;;;-0.82;100.00
54808;BME280;40708;50.364;7.550;2023-04-06T03:35:54;100794.69;;;-0.83;100.00
54808;BME280;40708;50.364;7.550;2023-04-06T03:38:20;100795.59;;;-0.82;100.00
54808;BME280;40708;50.364;7.550;2023-04-06T03:40:45;100801.59;;;-0.83;100.00
54808;BME280;40708;50.364;7.550;2023-04-06T03:43:11;100794.47;;;-0.87;100.00
54808;BME280;40708;50.364;7.550;2023-04-06T03:45:36;100804.00;;;-0.88;100.00
54808;BME280;40708;50.364;7.550;2023-04-06T03:48:02;100808.25;;;-0.90;100.00
54808;BME280;40708;50.364;7.550;2023-04-06T03:50:27;100808.06;;;-0.93;100.00
54808;BME280;40708;50.364;7.550;2023-04-06T03:52:52;100807.91;;;-0.96;100.00
54808;BME280;40708;50.364;7.550;2023-04-06T03:55:18;100811.25;;;-0.98;100.00
54808;BME280;40708;50.364;7.550;2023-04-06T03:57:43;100813.94;;;-0.97;100.00
54808;BME280;40708;50.364;7.550;2023-04-06T04:00:09;100824.00;;;-1.03;100.00
54808;BME280;40708;50.364;7.550;2023-04-06T04:02:34;100821.97;;;-1.08;100.00
54808;BME280;40708;50.364;7.550;2023-04-06T04:05:00;100821.84;;;-1.11;100.00
54808;BME280;40708;50.364;7.550;2023-04-06T04:07:25;100822.50;;;-1.15;100.00
54808;BME280;40708;50.364;7.550;2023-04-06T04:09:50;100823.22;;;-1.18;100.00
54808;BME280;40708;50.364;7.550;2023-04-06T04:12:15;100833.53;;;-1.20;100.00
54808;BME280;40708;50.364;7.550;2023-04-06T04:14:41;100834.28;;;-1.22;100.00
54808;BME280;40708;50.364;7.550;2023-04-06T04:17:07;100831.59;;;-1.24;100.00
54808;BME280;40708;50.364;7.550;2023-04-06T04:19:32;100830.06;;;-1.20;100.00
54808;BME280;40708;50.364;7.550;2023-04-06T04:21:57;100833.31;;;-1.24;100.00
54808;BME280;40708;50.364;7.550;2023-04-06T04:24:22;100833.13;;;-1.27;100.00
54808;BME280;40708;50.364;7.550;2023-04-06T04:26:48;100836.56;;;-1.28;100.00
54808;BME280;40708;50.364;7.550;2023-04-06T04:29:13;100839.00;;;-1.31;100.00
54808;BME280;40708;50.364;7.550;2023-04-06T04:31:38;100843.88;;;-1.37;100.00
54808;BME280;40708;50.364;7.550;2023-04-06T04:34:05;100844.44;;;-1.43;100.00
54808;BME280;40708;50.364;7.550;2023-04-06T04:36:31;100848.13;;;-1.39;100.00
54808;BME280;40708;50.364;7.550;2023-04-06T04:38:57;100852.31;;;-1.41;100.00
54808;BME280;40708;50.364;7.550;2023-04-06T04:41:22;100849.59;;;-1.44;100.00
54808;BME280;40708;50.364;7.550;2023-04-06T04:43:47;100846.63;;;-1.50;100.00
54808;BME280;40708;50.364;7.550;2023-04-06T04:46:13;100844.38;;;-1.44;100.00
54808;BME280;40708;50.364;7.550;2023-04-06T04:48:38;100856.97;;;-1.36;100.00
54808;BME280;40708;50.364;7.550;2023-04-06T04:51:04;100863.16;;;-1.34;100.00
54808;BME280;40708;50.364;7.550;2023-04-06T04:53:29;100860.63;;;-1.32;100.00
54808;BME280;40708;50.364;7.550;2023-04-06T04:55:55;100860.88;;;-1.28;100.00
54808;BME280;40708;50.364;7.550;2023-04-06T04:58:20;100861.94;;;-1.24;100.00
54808;BME280;40708;50.364;7.550;2023-04-06T05:00:46;100864.94;;;-1.16;100.00
54808;BME280;40708;50.364;7.550;2023-04-06T05:03:19;100860.56;;;-1.17;100.00
54808;BME280;40708;50.364;7.550;2023-04-06T05:05:45;100868.44;;;-1.16;100.00
54808;BME280;40708;50.364;7.550;2023-04-06T05:08:11;100872.19;;;-1.11;100.00
54808;BME280;40708;50.364;7.550;2023-04-06T05:10:36;100873.75;;;-0.98;100.00
54808;BME280;40708;50.364;7.550;2023-04-06T05:13:02;100870.06;;;-0.86;100.00
54808;BME280;40708;50.364;7.550;2023-04-06T05:15:27;100861.50;;;-0.67;100.00
54808;BME280;40708;50.364;7.550;2023-04-06T05:17:53;100854.00;;;-0.43;100.00
54808;BME280;40708;50.364;7.550;2023-04-06T05:20:18;100853.78;;;-0.14;100.00
54808;BME280;40708;50.364;7.550;2023-04-06T05:22:43;100847.81;;;0.24;100.00
54808;BME280;40708;50.364;7.550;2023-04-06T05:25:08;100837.75;;;0.50;100.00
54808;BME280;40708;50.364;7.550;2023-04-06T05:27:34;100828.31;;;0.72;100.00
54808;BME280;40708;50.364;7.550;2023-04-06T05:29:59;100810.63;;;1.04;100.00
54808;BME280;40708;50.364;7.550;2023-04-06T05:32:25;100800.88;;;1.40;100.00
54808;BME280;40708;50.364;7.550;2023-04-06T05:34:50;100798.56;;;1.89;100.00
54808;BME280;40708;50.364;7.550;2023-04-06T05:37:15;100789.34;;;2.43;100.00
54808;BME280;40708;50.364;7.550;2023-04-06T05:39:41;100756.84;;;2.60;100.00
54808;BME280;40708;50.364;7.550;2023-04-06T05:42:07;100740.72;;;2.97;100.00
54808;BME280;40708;50.364;7.550;2023-04-06T05:44:32;100729.50;;;3.51;100.00
54808;BME280;40708;50.364;7.550;2023-04-06T05:46:58;100719.50;;;3.93;100.00
54808;BME280;40708;50.364;7.550;2023-04-06T05:49:23;100714.28;;;4.23;100.00
54808;BME280;40708;50.364;7.550;2023-04-06T05:51:48;100699.91;;;4.40;100.00
54808;BME280;40708;50.364;7.550;2023-04-06T05:54:14;100698.75;;;4.92;100.00
54808;BME280;40708;50.364;7.550;2023-04-06T05:56:39;100689.31;;;5.32;100.00
54808;BME280;40708;50.364;7.550;2023-04-06T05:59:05;100687.84;;;5.45;100.00
54808;BME280;40708;50.364;7.550;2023-04-06T06:01:30;100685.97;;;5.39;100.00
54808;BME280;40708;50.364;7.550;2023-04-06T06:03:55;100685.56;;;6.35;100.00
54808;BME280;40708;50.364;7.550;2023-04-06T06:06:21;100672.91;;;6.59;100.00
54808;BME280;40708;50.364;7.550;2023-04-06T06:08:46;100667.97;;;6.77;100.00
54808;BME280;40708;50.364;7.550;2023-04-06T06:11:11;100672.41;;;6.80;100.00
54808;BME280;40708;50.364;7.550;2023-04-06T06:13:37;100666.88;;;7.12;100.00
54808;BME280;40708;50.364;7.550;2023-04-06T06:16:02;100669.75;;;7.26;100.00
54808;BME280;40708;50.364;7.550;2023-04-06T06:18:30;100655.03;;;7.40;100.00
54808;BME280;40708;50.364;7.550;2023-04-06T06:20:55;100651.97;;;7.68;100.00
54808;BME280;40708;50.364;7.550;2023-04-06T06:23:20;100662.31;;;8.12;100.00
54808;BME280;40708;50.364;7.550;2023-04-06T06:25:46;100652.72;;;8.21;100.00
54808;BME280;40708;50.364;7.550;2023-04-06T06:28:11;100651.00;;;8.23;100.00
54808;BME280;40708;50.364;7.550;2023-04-06T06:30:36;100654.22;;;8.03;100.00
54808;BME280;40708;50.364;7.550;2023-04-06T06:33:01;100651.59;;;8.70;100.00
54808;BME280;40708;50.364;7.550;2023-04-06T06:35:28;100645.63;;;8.89;100.00
54808;BME280;40708;50.364;7.550;2023-04-06T06:37:53;100646.59;;;8.97;100.00
54808;BME280;40708;50.364;7.550;2023-04-06T06:40:18;100652.06;;;9.13;100.00
54808;BME280;40708;50.364;7.550;2023-04-06T06:42:45;100653.28;;;9.52;100.00
54808;BME280;40708;50.364;7.550;2023-04-06T06:45:10;100651.66;;;9.71;100.00
54808;BME280;40708;50.364;7.550;2023-04-06T06:47:35;100638.00;;;10.54;100.00
54808;BME280;40708;50.364;7.550;2023-04-06T06:50:01;100638.06;;;10.72;100.00
54808;BME280;40708;50.364;7.550;2023-04-06T06:52:28;100651.91;;;10.10;100.00
54808;BME280;40708;50.364;7.550;2023-04-06T06:54:53;100642.09;;;9.91;100.00
54808;BME280;40708;50.364;7.550;2023-04-06T06:57:19;100624.81;;;10.81;100.00
54808;BME280;40708;50.364;7.550;2023-04-06T06:59:44;100632.84;;;11.19;100.00
54808;BME280;40708;50.364;7.550;2023-04-06T07:02:10;100627.47;;;10.80;100.00
54808;BME280;40708;50.364;7.550;2023-04-06T07:04:35;100634.56;;;10.87;100.00
54808;BME280;40708;50.364;7.550;2023-04-06T07:07:00;100637.25;;;11.05;100.00
54808;BME280;40708;50.364;7.550;2023-04-06T07:09:26;100631.97;;;11.21;100.00
54808;BME280;40708;50.364;7.550;2023-04-06T07:11:51;100637.25;;;11.12;100.00
54808;BME280;40708;50.364;7.550;2023-04-06T07:14:17;100627.47;;;10.93;100.00
54808;BME280;40708;50.364;7.550;2023-04-06T07:16:42;100623.09;;;11.03;100.00
54808;BME280;40708;50.364;7.550;2023-04-06T07:19:10;100623.97;;;10.99;100.00
54808;BME280;40708;50.364;7.550;2023-04-06T07:21:35;100609.81;;;11.51;100.00
54808;BME280;40708;50.364;7.550;2023-04-06T07:24:01;100623.94;;;10.96;100.00
54808;BME280;40708;50.364;7.550;2023-04-06T07:26:27;100623.09;;;11.62;98.43
54808;BME280;40708;50.364;7.550;2023-04-06T07:28:52;100626.63;;;11.56;92.33
54808;BME280;40708;50.364;7.550;2023-04-06T07:31:17;100616.91;;;11.81;90.56
54808;BME280;40708;50.364;7.550;2023-04-06T07:33:42;100622.22;;;11.90;85.29
54808;BME280;40708;50.364;7.550;2023-04-06T07:36:08;100619.56;;;11.63;83.74
54808;BME280;40708;50.364;7.550;2023-04-06T07:38:33;100614.06;;;12.35;85.15
54808;BME280;40708;50.364;7.550;2023-04-06T07:40:58;100611.31;;;12.58;79.56
54808;BME280;40708;50.364;7.550;2023-04-06T07:43:24;100608.66;;;12.58;72.85
54808;BME280;40708;50.364;7.550;2023-04-06T07:45:49;100616.78;;;12.31;81.49
54808;BME280;40708;50.364;7.550;2023-04-06T07:48:15;100606.97;;;12.39;79.59
54808;BME280;40708;50.364;7.550;2023-04-06T07:50:40;100614.66;;;12.89;72.85
54808;BME280;40708;50.364;7.550;2023-04-06T07:53:05;100609.66;;;12.31;73.24
54808;BME280;40708;50.364;7.550;2023-04-06T07:55:31;100609.59;;;12.46;73.52
54808;BME280;40708;50.364;7.550;2023-04-06T07:57:56;100611.28;;;12.61;77.21
54808;BME280;40708;50.364;7.550;2023-04-06T08:00:21;100608.44;;;12.88;72.21
54808;BME280;40708;50.364;7.550;2023-04-06T08:02:47;100598.34;;;13.39;64.73
54808;BME280;40708;50.364;7.550;2023-04-06T08:05:12;100597.06;;;12.65;65.33
54808;BME280;40708;50.364;7.550;2023-04-06T08:07:37;100605.91;;;12.73;66.18
54808;BME280;40708;50.364;7.550;2023-04-06T08:10:03;100591.53;;;13.97;61.68
54808;BME280;40708;50.364;7.550;2023-04-06T08:12:29;100592.69;;;13.75;63.33
54808;BME280;40708;50.364;7.550;2023-04-06T08:14:54;100614.97;;;13.68;59.13
54808;BME280;40708;50.364;7.550;2023-04-06T08:17:20;100593.56;;;13.77;59.46
54808;BME280;40708;50.364;7.550;2023-04-06T08:19:45;100583.91;;;14.43;56.49
54808;BME280;40708;50.364;7.550;2023-04-06T08:22:11;100580.56;;;14.26;55.08
54808;BME280;40708;50.364;7.550;2023-04-06T08:24:36;100585.56;;;14.53;56.06
54808;BME280;40708;50.364;7.550;2023-04-06T08:27:02;100581.13;;;14.52;56.38
54808;BME280;40708;50.364;7.550;2023-04-06T08:29:28;100582.59;;;14.74;54.84
54808;BME280;40708;50.364;7.550;2023-04-06T08:31:53;100580.66;;;14.17;57.23
54808;BME280;40708;50.364;7.550;2023-04-06T08:34:18;100573.03;;;15.18;56.21
54808;BME280;40708;50.364;7.550;2023-04-06T08:36:44;100572.88;;;15.77;52.64
54808;BME280;40708;50.364;7.550;2023-04-06T08:39:10;100571.63;;;14.93;52.69
54808;BME280;40708;50.364;7.550;2023-04-06T08:41:35;100575.63;;;14.63;54.91
54808;BME280;40708;50.364;7.550;2023-04-06T08:44:02;100576.22;;;15.39;54.00
54808;BME280;40708;50.364;7.550;2023-04-06T08:46:29;100570.56;;;15.04;56.67
54808;BME280;40708;50.364;7.550;2023-04-06T08:49:00;100574.34;;;14.91;56.24
54808;BME280;40708;50.364;7.550;2023-04-06T08:51:26;100571.66;;;14.89;56.60
54808;BME280;40708;50.364;7.550;2023-04-06T08:53:53;100573.69;;;15.32;55.87
54808;BME280;40708;50.364;7.550;2023-04-06T08:56:22;100563.50;;;15.55;54.22
54808;BME280;40708;50.364;7.550;2023-04-06T08:58:48;100567.84;;;15.61;52.30
54808;BME280;40708;50.364;7.550;2023-04-06T09:01:14;100571.22;;;14.62;54.91
54808;BME280;40708;50.364;7.550;2023-04-06T09:03:42;100575.28;;;14.88;55.12
54808;BME280;40708;50.364;7.550;2023-04-06T09:06:08;100573.56;;;14.81;59.51
54808;BME280;40708;50.364;7.550;2023-04-06T09:08:35;100577.59;;;13.74;58.98
54808;BME280;40708;50.364;7.550;2023-04-06T09:11:02;100570.66;;;14.37;60.38
54808;BME280;40708;50.364;7.550;2023-04-06T09:13:28;100564.25;;;14.50;57.14
54808;BME280;40708;50.364;7.550;2023-04-06T09:16:03;100561.97;;;14.85;53.92
54808;BME280;40708;50.364;7.550;2023-04-06T09:18:33;100564.59;;;15.42;53.67
54808;BME280;40708;50.364;7.550;2023-04-06T09:23:23;100551.63;;;15.70;52.40
54808;BME280;40708;50.364;7.550;2023-04-06T09:25:49;100550.16;;;15.52;54.86
54808;BME280;40708;50.364;7.550;2023-04-06T09:28:14;100553.47;;;15.14;54.06
54808;BME280;40708;50.364;7.550;2023-04-06T09:30:48;100551.41;;;15.31;56.24
54808;BME280;40708;50.364;7.550;2023-04-06T09:33:13;100549.53;;;15.38;56.66
54808;BME280;40708;50.364;7.550;2023-04-06T09:35:49;100553.47;;;14.58;56.45
54808;BME280;40708;50.364;7.550;2023-04-06T09:38:14;100547.31;;;14.51;56.76
54808;BME280;40708;50.364;7.550;2023-04-06T09:40:52;100542.50;;;14.77;53.76
54808;BME280;40708;50.364;7.550;2023-04-06T09:43:25;100535.13;;;14.93;53.58
54808;BME280;40708;50.364;7.550;2023-04-06T09:45:51;100533.34;;;15.45;53.15
54808;BME280;40708;50.364;7.550;2023-04-06T09:48:17;100535.38;;;15.80;51.52
54808;BME280;40708;50.364;7.550;2023-04-06T09:50:44;100537.16;;;14.77;53.63
54808;BME280;40708;50.364;7.550;2023-04-06T09:53:09;100532.09;;;15.14;54.41
54808;BME280;40708;50.364;7.550;2023-04-06T09:55:43;100531.19;;;15.15;52.91
54808;BME280;40708;50.364;7.550;2023-04-06T09:58:13;100528.88;;;15.49;52.00
54808;BME280;40708;50.364;7.550;2023-04-06T10:00:57;100524.25;;;15.57;51.03
54808;BME280;40708;50.364;7.550;2023-04-06T10:03:41;100513.72;;;15.94;49.97
54808;BME280;40708;50.364;7.550;2023-04-06T10:06:14;100516.41;;;16.35;49.36
54808;BME280;40708;50.364;7.550;2023-04-06T10:08:40;100510.00;;;15.55;50.61
54808;BME280;40708;50.364;7.550;2023-04-06T10:11:07;100516.16;;;16.04;48.53
54808;BME280;40708;50.364;7.550;2023-04-06T10:13:33;100504.50;;;16.48;48.43
54808;BME280;40708;50.364;7.550;2023-04-06T10:15:59;100495.22;;;16.64;46.78
54808;BME280;40708;50.364;7.550;2023-04-06T10:18:26;100496.59;;;17.17;46.71
54808;BME280;40708;50.364;7.550;2023-04-06T10:21:00;100503.69;;;16.85;45.89
54808;BME280;40708;50.364;7.550;2023-04-06T10:23:31;100495.56;;;16.08;45.93
54808;BME280;40708;50.364;7.550;2023-04-06T10:25:59;100507.16;;;15.64;45.98
54808;BME280;40708;50.364;7.550;2023-04-06T10:28:29;100502.94;;;16.38;46.29
54808;BME280;40708;50.364;7.550;2023-04-06T10:31:13;100507.47;;;16.35;47.18
54808;BME280;40708;50.364;7.550;2023-04-06T10:33:38;100508.94;;;16.49;47.75
54808;BME280;40708;50.364;7.550;2023-04-06T10:36:23;100506.00;;;16.22;47.57
54808;BME280;40708;50.364;7.550;2023-04-06T10:38:54;100501.44;;;15.84;48.48
54808;BME280;40708;50.364;7.550;2023-04-06T10:41:19;100508.91;;;16.11;48.05
54808;BME280;40708;50.364;7.550;2023-04-06T10:43:54;100514.66;;;15.91;48.69
54808;BME280;40708;50.364;7.550;2023-04-06T10:46:25;100502.91;;;15.98;49.16
54808;BME280;40708;50.364;7.550;2023-04-06T10:48:50;100510.19;;;15.90;48.14
54808;BME280;40708;50.364;7.550;2023-04-06T10:51:18;100508.00;;;15.68;48.93
54808;BME280;40708;50.364;7.550;2023-04-06T10:53:45;100512.47;;;16.10;48.33
54808;BME280;40708;50.364;7.550;2023-04-06T10:56:13;100507.59;;;16.30;48.16
54808;BME280;40708;50.364;7.550;2023-04-06T10:58:52;100503.84;;;15.97;46.23
54808;BME280;40708;50.364;7.550;2023-04-06T11:01:19;100497.13;;;16.18;46.32
54808;BME280;40708;50.364;7.550;2023-04-06T11:03:47;100498.50;;;16.37;45.78
54808;BME280;40708;50.364;7.550;2023-04-06T11:06:23;100493.63;;;16.16;45.13
54808;BME280;40708;50.364;7.550;2023-04-06T11:08:50;100501.50;;;15.81;45.78
54808;BME280;40708;50.364;7.550;2023-04-06T11:11:17;100492.88;;;16.49;45.96
54808;BME280;40708;50.364;7.550;2023-04-06T11:13:51;100500.69;;;16.97;45.20
54808;BME280;40708;50.364;7.550;2023-04-06T11:16:29;100474.00;;;17.27;43.16
54808;BME280;40708;50.364;7.550;2023-04-06T11:18:56;100486.72;;;16.84;43.85
54808;BME280;40708;50.364;7.550;2023-04-06T11:21:42;100489.31;;;16.87;44.36
54808;BME280;40708;50.364;7.550;2023-04-06T11:24:10;100473.69;;;17.04;43.78
54808;BME280;40708;50.364;7.550;2023-04-06T11:26:48;100481.00;;;16.62;44.20
54808;BME280;40708;50.364;7.550;2023-04-06T11:29:16;100483.00;;;16.51;44.94
54808;BME280;40708;50.364;7.550;2023-04-06T11:31:47;100484.56;;;16.61;44.28
54808;BME280;40708;50.364;7.550;2023-04-06T11:34:20;100466.97;;;17.22;43.89
54808;BME280;40708;50.364;7.550;2023-04-06T11:36:47;100463.38;;;16.88;43.71
54808;BME280;40708;50.364;7.550;2023-04-06T11:39:13;100469.69;;;16.85;43.97
54808;BME280;40708;50.364;7.550;2023-04-06T11:41:47;100470.00;;;16.35;44.10
54808;BME280;40708;50.364;7.550;2023-04-06T11:44:12;100471.38;;;16.13;45.29
54808;BME280;40708;50.364;7.550;2023-04-06T11:46:38;100464.84;;;16.26;44.58
54808;BME280;40708;50.364;7.550;2023-04-06T11:49:03;100457.91;;;15.76;45.05
54808;BME280;40708;50.364;7.550;2023-04-06T11:51:28;100471.94;;;15.87;45.58
54808;BME280;40708;50.364;7.550;2023-04-06T11:53:54;100463.41;;;16.09;46.09
54808;BME280;40708;50.364;7.550;2023-04-06T11:56:27;100464.78;;;16.29;46.17
54808;BME280;40708;50.364;7.550;2023-04-06T11:58:55;100460.41;;;16.25;46.91
54808;BME280;40708;50.364;7.550;2023-04-06T12:01:21;100459.94;;;16.44;45.49
54808;BME280;40708;50.364;7.550;2023-04-06T12:03:46;100444.53;;;16.92;46.23
54808;BME280;40708;50.364;7.550;2023-04-06T12:06:11;100454.78;;;16.75;46.04
54808;BME280;40708;50.364;7.550;2023-04-06T12:08:37;100447.63;;;17.11;45.59
54808;BME280;40708;50.364;7.550;2023-04-06T12:11:02;100441.88;;;16.91;43.86
54808;BME280;40708;50.364;7.550;2023-04-06T12:13:27;100446.13;;;16.99;44.05
54808;BME280;40708;50.364;7.550;2023-04-06T12:15:52;100452.31;;;16.66;46.22
54808;BME280;40708;50.364;7.550;2023-04-06T12:18:18;100455.84;;;16.28;47.12
54808;BME280;40708;50.364;7.550;2023-04-06T12:20:43;100449.69;;;16.64;47.33
54808;BME280;40708;50.364;7.550;2023-04-06T12:23:08;100456.13;;;16.56;45.82
54808;BME280;40708;50.364;7.550;2023-04-06T12:25:33;100454.13;;;16.26;46.12
54808;BME280;40708;50.364;7.550;2023-04-06T12:27:59;100447.03;;;16.25;44.61
54808;BME280;40708;50.364;7.550;2023-04-06T12:30:25;100446.75;;;15.95;45.03
54808;BME280;40708;50.364;7.550;2023-04-06T12:32:50;100449.94;;;15.73;46.78
54808;BME280;40708;50.364;7.550;2023-04-06T12:35:16;100438.69;;;15.57;46.13
54808;BME280;40708;50.364;7.550;2023-04-06T12:37:41;100443.72;;;16.12;45.85
54808;BME280;40708;50.364;7.550;2023-04-06T12:40:07;100451.25;;;15.95;46.35
54808;BME280;40708;50.364;7.550;2023-04-06T12:42:35;100435.81;;;16.07;46.19
54808;BME280;40708;50.364;7.550;2023-04-06T12:45:00;100432.97;;;16.15;45.45
54808;BME280;40708;50.364;7.550;2023-04-06T12:47:26;100439.44;;;16.03;45.89